createdAt,value
2023-01-17T00:00:03.888Z,12.7
2023-01-17T00:01:11.590Z,9.9
2023-01-17T00:02:18.909Z,10.2
2023-01-17T00:03:26.287Z,8.4
2023-01-17T00:04:33.401Z,8.4
2023-01-17T00:05:45.722Z,8.9
2023-01-17T00:06:57.794Z,8.1
2023-01-17T00:08:10.100Z,7.5
2023-01-17T00:09:22.102Z,7.5
2023-01-17T00:10:34.510Z,6.6
2023-01-17T00:11:41.614Z,7.8
2023-01-17T00:12:48.685Z,7.5
2023-01-17T00:13:58.320Z,6.6
2023-01-17T00:15:05.567Z,6.4
2023-01-17T00:16:13.236Z,6.9
2023-01-17T00:17:20.366Z,6.9
2023-01-17T00:18:27.953Z,6.3
2023-01-17T00:19:34.963Z,7.1
2023-01-17T00:20:47.391Z,5.9
2023-01-17T00:21:59.444Z,6.6
2023-01-17T00:23:14.678Z,6.3
2023-01-17T00:24:26.990Z,5.4
2023-01-17T00:25:39.142Z,6
2023-01-17T00:26:51.327Z,5
2023-01-17T00:28:03.608Z,4.8
2023-01-17T00:29:10.839Z,4.6
2023-01-17T00:30:17.801Z,5.5
2023-01-17T00:31:24.989Z,4.9
2023-01-17T00:32:32.018Z,4.3
2023-01-17T00:33:39.201Z,4.2
2023-01-17T00:34:46.368Z,4.5
2023-01-17T00:35:53.494Z,4.5
2023-01-17T00:37:00.660Z,4.9
2023-01-17T00:38:07.771Z,5.2
2023-01-17T00:39:14.892Z,5.1
2023-01-17T00:40:22.116Z,4.2
2023-01-17T00:41:29.165Z,4.9
2023-01-17T00:42:36.780Z,4.9
2023-01-17T00:43:43.952Z,5.1
2023-01-17T00:44:56.199Z,5.8
2023-01-17T00:46:08.662Z,5.7
2023-01-17T00:47:21.180Z,6.6
2023-01-17T00:48:33.382Z,5.8
2023-01-17T00:49:45.639Z,5.5
2023-01-17T00:50:57.791Z,6.2
2023-01-17T00:52:10.139Z,6.5
2023-01-17T00:53:22.239Z,6
2023-01-17T00:54:34.462Z,6.4
2023-01-17T00:55:46.614Z,6.3
2023-01-17T00:56:58.914Z,6.3
2023-01-17T00:58:11.192Z,6.5
2023-01-17T00:59:23.350Z,6.9
2023-01-17T01:00:35.555Z,6.9
2023-01-17T01:01:47.896Z,7.4
2023-01-17T01:03:00.085Z,7.5
2023-01-17T01:04:15.250Z,8.7
2023-01-17T01:05:27.460Z,8.1
2023-01-17T01:06:39.615Z,8
2023-01-17T01:07:51.970Z,7.4
2023-01-17T01:09:04.309Z,7.4
2023-01-17T01:10:16.479Z,8
2023-01-17T01:11:29.050Z,7.7
2023-01-17T01:12:41.261Z,8.4
2023-01-17T01:13:53.562Z,8.8
2023-01-17T01:15:05.730Z,8.5
2023-01-17T01:16:18.006Z,8.7
2023-01-17T01:17:30.188Z,8.8
2023-01-17T01:18:42.331Z,8.2
2023-01-17T01:19:54.631Z,7.9
2023-01-17T01:21:06.870Z,7.8
2023-01-17T01:22:19.189Z,7.5
2023-01-17T01:23:31.257Z,7.1
2023-01-17T01:24:46.052Z,7.1
2023-01-17T01:25:58.318Z,6.9
2023-01-17T01:27:10.767Z,7.6
2023-01-17T01:28:23.281Z,7.2
2023-01-17T01:29:35.314Z,6.3
2023-01-17T01:30:47.819Z,7.2
2023-01-17T01:31:59.835Z,6.5
2023-01-17T01:33:12.241Z,6.1
2023-01-17T01:34:24.738Z,6.8
2023-01-17T01:35:31.879Z,6.9
2023-01-17T01:36:39.050Z,6.4
2023-01-17T01:37:46.208Z,7.1
2023-01-17T01:38:53.319Z,5.9
2023-01-17T01:40:00.435Z,5.9
2023-01-17T01:41:08.181Z,5.9
2023-01-17T01:42:15.251Z,6.3
2023-01-17T01:43:22.466Z,5.6
2023-01-17T01:44:39.993Z,5.8
2023-01-17T01:45:52.850Z,5.4
2023-01-17T01:46:59.921Z,6
2023-01-17T01:48:08.050Z,6.5
2023-01-17T01:49:23.319Z,6.9
2023-01-17T01:50:30.467Z,6.5
2023-01-17T01:51:37.633Z,5.5
2023-01-17T01:52:44.772Z,5.1
2023-01-17T01:53:51.846Z,5.1
2023-01-17T01:54:59.153Z,5.2
2023-01-17T01:56:09.292Z,4.9
2023-01-17T01:57:16.245Z,4.1
2023-01-17T01:58:23.415Z,4.3
2023-01-17T01:59:30.543Z,3.9
2023-01-17T02:00:37.709Z,4.8
2023-01-17T02:01:44.944Z,3.8
2023-01-17T02:02:52.045Z,4.1
2023-01-17T02:03:59.118Z,4.4
2023-01-17T02:05:06.193Z,4.1
2023-01-17T02:06:13.319Z,4.3
2023-01-17T02:07:25.426Z,4.2
2023-01-17T02:08:37.757Z,4
2023-01-17T02:09:44.860Z,4.4
2023-01-17T02:10:52.047Z,4
2023-01-17T02:11:59.142Z,4.5
2023-01-17T02:13:06.327Z,4.2
2023-01-17T02:14:13.448Z,4.2
2023-01-17T02:15:20.536Z,4.2
2023-01-17T02:16:27.868Z,4.2
2023-01-17T02:17:40.313Z,4.1
2023-01-17T02:18:50.543Z,4.1
2023-01-17T02:20:03.787Z,4.5
2023-01-17T02:21:15.944Z,3.9
2023-01-17T02:22:25.649Z,4.5
2023-01-17T02:23:42.970Z,4.7
2023-01-17T02:24:55.144Z,4.7
2023-01-17T02:26:12.479Z,3.7
2023-01-17T02:27:24.722Z,4.2
2023-01-17T02:28:31.692Z,4.5
2023-01-17T02:29:41.932Z,5
2023-01-17T02:30:59.334Z,5.6
2023-01-17T02:32:08.997Z,5
2023-01-17T02:33:26.755Z,4.4
2023-01-17T02:34:36.958Z,5.2
2023-01-17T02:35:52.168Z,5.3
2023-01-17T02:37:09.499Z,4.4
2023-01-17T02:38:22.761Z,4.3
2023-01-17T02:39:36.209Z,4.5
2023-01-17T02:40:43.121Z,5.2
2023-01-17T02:41:58.430Z,4.5
2023-01-17T02:43:05.499Z,4.7
2023-01-17T02:44:12.682Z,4.3
2023-01-17T02:45:19.974Z,4.5
2023-01-17T02:46:26.910Z,3.9
2023-01-17T02:47:34.030Z,4.8
2023-01-17T02:48:41.173Z,4.6
2023-01-17T02:49:48.274Z,4.6
2023-01-17T02:50:55.409Z,4.6
2023-01-17T02:52:10.664Z,5.4
2023-01-17T02:53:23.278Z,5.2
2023-01-17T02:54:33.069Z,5.3
2023-01-17T02:55:45.414Z,5.1
2023-01-17T02:57:00.538Z,5.6
2023-01-17T02:58:12.865Z,4.9
2023-01-17T02:59:24.910Z,5.1
2023-01-17T03:00:42.349Z,4.6
2023-01-17T03:01:59.919Z,4.7
2023-01-17T03:03:12.414Z,4.2
2023-01-17T03:04:24.997Z,4.5
2023-01-17T03:05:38.368Z,4.4
2023-01-17T03:06:50.626Z,4.6
2023-01-17T03:07:57.525Z,4.8
2023-01-17T03:09:04.823Z,4.9
2023-01-17T03:10:11.909Z,4.7
2023-01-17T03:11:19.109Z,4
2023-01-17T03:12:26.794Z,4.4
2023-01-17T03:13:33.965Z,4.2
2023-01-17T03:14:40.943Z,3.9
2023-01-17T03:15:48.087Z,4.4
2023-01-17T03:16:55.221Z,4
2023-01-17T03:18:02.310Z,4.1
2023-01-17T03:19:09.398Z,4.4
2023-01-17T03:20:16.600Z,4.2
2023-01-17T03:21:24.211Z,4.3
2023-01-17T03:22:31.332Z,4.9
2023-01-17T03:23:38.431Z,4.6
2023-01-17T03:24:45.553Z,3.9
2023-01-17T03:25:52.969Z,4.6
2023-01-17T03:26:59.930Z,4.4
2023-01-17T03:28:06.959Z,4.5
2023-01-17T03:29:14.166Z,4.4
2023-01-17T03:30:21.415Z,5
2023-01-17T03:31:28.450Z,5.1
2023-01-17T03:32:35.557Z,4.5
2023-01-17T03:33:42.683Z,4.4
2023-01-17T03:34:49.844Z,4.8
2023-01-17T03:35:56.892Z,5.5
2023-01-17T03:37:04.191Z,4.4
2023-01-17T03:38:11.230Z,4.4
2023-01-17T03:39:18.351Z,4.7
2023-01-17T03:40:25.462Z,4.8
2023-01-17T03:41:32.575Z,4.5
2023-01-17T03:42:39.742Z,4.3
2023-01-17T03:43:46.946Z,5
2023-01-17T03:44:54.081Z,5
2023-01-17T03:46:01.273Z,4.8
2023-01-17T03:47:08.256Z,5.5
2023-01-17T03:48:15.345Z,5.3
2023-01-17T03:49:22.562Z,5.3
2023-01-17T03:50:29.669Z,4.6
2023-01-17T03:51:36.773Z,5.5
2023-01-17T03:52:44.048Z,5.1
2023-01-17T03:53:51.042Z,4.3
2023-01-17T03:54:58.223Z,4.9
2023-01-17T03:56:05.374Z,5.5
2023-01-17T03:57:21.993Z,4.7
2023-01-17T03:58:29.165Z,4.9
2023-01-17T03:59:36.412Z,5.3
2023-01-17T04:00:43.542Z,4.9
2023-01-17T04:01:50.713Z,5.3
2023-01-17T04:02:58.858Z,5.6
2023-01-17T04:04:05.927Z,6
2023-01-17T04:05:12.995Z,5.8
2023-01-17T04:06:20.213Z,4.8
2023-01-17T04:07:27.298Z,5.4
2023-01-17T04:08:34.412Z,5.6
2023-01-17T04:09:41.617Z,5.4
2023-01-17T04:10:48.773Z,5.2
2023-01-17T04:11:56.049Z,5.6
2023-01-17T04:13:08.346Z,6.3
2023-01-17T04:14:15.794Z,5.2
2023-01-17T04:15:23.004Z,5.3
2023-01-17T04:16:30.099Z,5.7
2023-01-17T04:17:37.158Z,4.8
2023-01-17T04:18:50.487Z,4.8
2023-01-17T04:19:57.518Z,5
2023-01-17T04:21:04.714Z,5.1
2023-01-17T04:22:11.837Z,4.2
2023-01-17T04:23:18.897Z,4.9
2023-01-17T04:24:28.851Z,5.2
2023-01-17T04:25:36.229Z,4.9
2023-01-17T04:26:43.285Z,5.3
2023-01-17T04:27:50.373Z,5.3
2023-01-17T04:28:57.591Z,5
2023-01-17T04:30:04.888Z,5.3
2023-01-17T04:31:12.928Z,5.8
2023-01-17T04:32:19.984Z,5.3
2023-01-17T04:33:27.120Z,4.9
2023-01-17T04:34:34.287Z,5.9
2023-01-17T04:35:41.430Z,5.5
2023-01-17T04:36:48.548Z,6.1
2023-01-17T04:37:55.663Z,7
2023-01-17T04:39:02.819Z,6.4
2023-01-17T04:40:09.918Z,6.3
2023-01-17T04:41:17.065Z,6.3
2023-01-17T04:42:24.165Z,6.2
2023-01-17T04:43:31.331Z,5.8
2023-01-17T04:44:38.471Z,6.1
2023-01-17T04:45:45.765Z,5.6
2023-01-17T04:46:52.794Z,5.9
2023-01-17T04:47:59.869Z,5.8
2023-01-17T04:49:07.192Z,5.1
2023-01-17T04:50:14.701Z,5.2
2023-01-17T04:51:21.863Z,5.6
2023-01-17T04:52:28.849Z,5.7
2023-01-17T04:53:35.991Z,6.1
2023-01-17T04:54:43.130Z,6.2
2023-01-17T04:55:50.333Z,5.7
2023-01-17T04:56:57.537Z,5.4
2023-01-17T04:58:04.493Z,6.5
2023-01-17T04:59:11.642Z,6.4
2023-01-17T05:00:18.833Z,6.9
2023-01-17T05:01:26.064Z,6.7
2023-01-17T05:02:33.122Z,6.6
2023-01-17T05:03:41.114Z,7
2023-01-17T05:04:48.249Z,6.9
2023-01-17T05:05:55.458Z,7.1
2023-01-17T05:07:02.590Z,7.3
2023-01-17T05:08:09.650Z,8.2
2023-01-17T05:09:16.859Z,10.5
2023-01-17T05:10:23.902Z,11.8
2023-01-17T05:11:31.049Z,11.3
2023-01-17T05:12:38.118Z,9.8
2023-01-17T05:13:45.269Z,9.5
2023-01-17T05:14:52.463Z,9.5
2023-01-17T05:15:59.558Z,9.5
2023-01-17T05:17:06.742Z,8.2
2023-01-17T05:18:13.796Z,8.3
2023-01-17T05:19:21.096Z,8.9
2023-01-17T05:20:28.030Z,9.7
2023-01-17T05:21:35.243Z,10.1
2023-01-17T05:22:42.498Z,8.6
2023-01-17T05:23:49.461Z,10.6
2023-01-17T05:24:56.608Z,10.1
2023-01-17T05:26:03.837Z,10.1
2023-01-17T05:27:10.957Z,10.2
2023-01-17T05:28:17.960Z,11.1
2023-01-17T05:29:25.161Z,10.6
2023-01-17T05:30:32.173Z,10.7
2023-01-17T05:31:39.461Z,11.6
2023-01-17T05:32:48.035Z,11.2
2023-01-17T05:33:55.172Z,11.4
2023-01-17T05:35:02.405Z,11.5
2023-01-17T05:36:10.100Z,12
2023-01-17T05:37:17.659Z,11.5
2023-01-17T05:38:24.733Z,11.2
2023-01-17T05:39:31.826Z,11.4
2023-01-17T05:40:38.921Z,11.6
2023-01-17T05:41:46.137Z,12.1
2023-01-17T05:42:53.350Z,10.7
2023-01-17T05:44:00.547Z,10.8
2023-01-17T05:45:08.088Z,10.1
2023-01-17T05:46:15.334Z,9.4
2023-01-17T05:47:22.373Z,9.5
2023-01-17T05:48:29.430Z,10.7
2023-01-17T05:49:36.625Z,9.3
2023-01-17T05:50:43.712Z,9.8
2023-01-17T05:51:52.902Z,10.2
2023-01-17T05:52:58.353Z,9.5
2023-01-17T05:54:05.514Z,9.8
2023-01-17T05:55:12.802Z,10
2023-01-17T05:56:20.428Z,9.3
2023-01-17T05:57:27.428Z,10.7
2023-01-17T05:58:34.582Z,9.9
2023-01-17T05:59:41.805Z,10
2023-01-17T06:00:48.952Z,10.1
2023-01-17T06:01:56.077Z,9.7
2023-01-17T06:03:03.224Z,10.5
2023-01-17T06:04:10.199Z,10.3
2023-01-17T06:05:17.373Z,10.5
2023-01-17T06:06:24.564Z,11
2023-01-17T06:07:31.564Z,10
2023-01-17T06:08:38.921Z,10
2023-01-17T06:09:46.031Z,10.2
2023-01-17T06:10:53.111Z,10.8
2023-01-17T06:12:00.160Z,9.7
2023-01-17T06:13:07.349Z,11.2
2023-01-17T06:14:14.541Z,10.3
2023-01-17T06:15:21.614Z,10.4
2023-01-17T06:16:28.668Z,10
2023-01-17T06:17:35.733Z,10.1
2023-01-17T06:18:42.910Z,9.9
2023-01-17T06:19:50.015Z,9.8
2023-01-17T06:20:57.230Z,9.7
2023-01-17T06:22:04.349Z,9.7
2023-01-17T06:23:11.460Z,10.4
2023-01-17T06:24:18.652Z,9.6
2023-01-17T06:25:25.712Z,9.7
2023-01-17T06:26:32.843Z,9.3
2023-01-17T06:27:40.113Z,9.4
2023-01-17T06:28:47.314Z,9.6
2023-01-17T06:29:54.766Z,8.5
2023-01-17T06:31:02.874Z,9.7
2023-01-17T06:32:10.027Z,8.9
2023-01-17T06:33:17.173Z,9.4
2023-01-17T06:34:24.303Z,9.6
2023-01-17T06:35:31.546Z,10
2023-01-17T06:36:38.667Z,10.1
2023-01-17T06:37:45.705Z,8.9
2023-01-17T06:38:55.926Z,9.5
2023-01-17T06:40:03.097Z,9.7
2023-01-17T06:41:10.675Z,9.9
2023-01-17T06:42:17.645Z,10.4
2023-01-17T06:43:26.001Z,10.9
2023-01-17T06:44:33.069Z,10.8
2023-01-17T06:45:40.349Z,9.6
2023-01-17T06:46:47.381Z,10.4
2023-01-17T06:47:54.444Z,10.4
2023-01-17T06:49:01.681Z,9.8
2023-01-17T06:50:08.745Z,9.5
2023-01-17T06:51:15.900Z,10.3
2023-01-17T06:52:23.068Z,10.2
2023-01-17T06:53:30.089Z,11.2
2023-01-17T06:54:37.208Z,9.4
2023-01-17T06:55:44.359Z,9.7
2023-01-17T06:56:51.645Z,10.6
2023-01-17T06:57:58.916Z,9.9
2023-01-17T06:59:06.329Z,10.4
2023-01-17T07:00:13.737Z,11.5
2023-01-17T07:01:21.168Z,10.2
2023-01-17T07:02:28.109Z,10
2023-01-17T07:03:36.285Z,11.3
2023-01-17T07:04:43.378Z,10.1
2023-01-17T07:05:50.537Z,10.4
2023-01-17T07:06:57.712Z,10.6
2023-01-17T07:08:04.845Z,11.3
2023-01-17T07:09:12.037Z,10.9
2023-01-17T07:10:19.082Z,10
2023-01-17T07:11:26.279Z,9.7
2023-01-17T07:12:34.185Z,11.5
2023-01-17T07:13:41.504Z,11.4
2023-01-17T07:14:48.622Z,11.7
2023-01-17T07:15:55.811Z,10.8
2023-01-17T07:17:05.949Z,11.5
2023-01-17T07:18:12.985Z,10.4
2023-01-17T07:19:20.204Z,12.1
2023-01-17T07:20:28.406Z,10.5
2023-01-17T07:21:35.380Z,11.1
2023-01-17T07:22:42.573Z,11.4
2023-01-17T07:23:49.736Z,13.5
2023-01-17T07:24:57.094Z,12.5
2023-01-17T07:26:04.596Z,14.1
2023-01-17T07:27:11.674Z,11.9
2023-01-17T07:28:18.837Z,12.9
2023-01-17T07:29:26.894Z,13.1
2023-01-17T07:30:34.058Z,12.3
2023-01-17T07:31:41.151Z,12.8
2023-01-17T07:32:48.210Z,12.8
2023-01-17T07:33:55.384Z,12.7
2023-01-17T07:35:02.548Z,12.5
2023-01-17T07:36:10.156Z,11.7
2023-01-17T07:37:17.377Z,12.8
2023-01-17T07:38:24.488Z,13.2
2023-01-17T07:39:31.572Z,13.5
2023-01-17T07:40:42.281Z,11.1
2023-01-17T07:41:45.878Z,12.4
2023-01-17T07:42:52.935Z,13
2023-01-17T07:44:05.198Z,12.9
2023-01-17T07:45:15.485Z,11.3
2023-01-17T07:46:22.534Z,11.8
2023-01-17T07:47:29.583Z,11.8
2023-01-17T07:48:36.697Z,13.6
2023-01-17T07:49:44.128Z,13.4
2023-01-17T07:50:51.041Z,11.8
2023-01-17T07:51:58.164Z,12.2
2023-01-17T07:53:05.820Z,11
2023-01-17T07:54:12.996Z,11.8
2023-01-17T07:55:20.101Z,11.4
2023-01-17T07:56:27.325Z,11.9
2023-01-17T07:57:34.261Z,12.6
2023-01-17T07:58:42.492Z,10.7
2023-01-17T07:59:50.004Z,10.5
2023-01-17T08:00:58.098Z,10
2023-01-17T08:02:05.415Z,10.6
2023-01-17T08:03:20.764Z,11.6
2023-01-17T08:04:27.844Z,12.3
2023-01-17T08:05:34.913Z,11.4
2023-01-17T08:06:42.021Z,11.3
2023-01-17T08:07:49.242Z,10.6
2023-01-17T08:08:56.283Z,11.3
2023-01-17T08:10:03.336Z,12.6
2023-01-17T08:11:12.512Z,12.3
2023-01-17T08:12:19.715Z,13
2023-01-17T08:13:28.986Z,11.3
2023-01-17T08:14:33.986Z,12.5
2023-01-17T08:15:41.082Z,12.2
2023-01-17T08:16:48.293Z,12.6
2023-01-17T08:17:55.348Z,11.4
2023-01-17T08:19:02.536Z,11.1
2023-01-17T08:20:09.632Z,11
2023-01-17T08:21:16.847Z,12.2
2023-01-17T08:22:23.931Z,11.3
2023-01-17T08:23:31.346Z,13
2023-01-17T08:24:39.151Z,12.7
2023-01-17T08:25:46.174Z,11.1
2023-01-17T08:26:53.380Z,13
2023-01-17T08:28:00.462Z,10.3
2023-01-17T08:29:07.604Z,10.5
2023-01-17T08:30:14.796Z,10.1
2023-01-17T08:31:23.980Z,10.8
2023-01-17T08:32:31.098Z,10.6
2023-01-17T08:33:38.103Z,10.3
2023-01-17T08:34:45.374Z,11.2
2023-01-17T08:35:52.401Z,11.6
2023-01-17T08:36:59.592Z,11.5
2023-01-17T08:38:06.620Z,10.3
2023-01-17T08:39:13.800Z,11.4
2023-01-17T08:40:20.925Z,11.3
2023-01-17T08:41:29.852Z,10.2
2023-01-17T08:42:37.135Z,10.4
2023-01-17T08:43:44.334Z,10.6
2023-01-17T08:44:51.395Z,10.6
2023-01-17T08:45:58.682Z,10.2
2023-01-17T08:47:05.747Z,9.9
2023-01-17T08:48:12.866Z,11.1
2023-01-17T08:49:20.480Z,9.4
2023-01-17T08:50:27.754Z,9.8
2023-01-17T08:51:34.921Z,10.4
2023-01-17T08:52:42.363Z,10.3
2023-01-17T08:53:53.473Z,9.8
2023-01-17T08:55:00.679Z,10.7
2023-01-17T08:56:07.832Z,10.1
2023-01-17T08:57:14.830Z,10.1
2023-01-17T08:58:22.115Z,10.2
2023-01-17T08:59:30.279Z,10.8
2023-01-17T09:00:37.247Z,11.5
2023-01-17T09:01:44.550Z,11.9
2023-01-17T09:02:51.591Z,11.4
2023-01-17T09:03:58.804Z,10.6
2023-01-17T09:05:05.854Z,12.1
2023-01-17T09:06:13.021Z,11.5
2023-01-17T09:07:20.190Z,10.5
2023-01-17T09:08:27.152Z,10
2023-01-17T09:09:34.415Z,12.5
2023-01-17T09:10:41.500Z,11
2023-01-17T09:11:48.605Z,11.2
2023-01-17T09:12:55.912Z,10.3
2023-01-17T09:14:03.093Z,10.5
2023-01-17T09:15:10.009Z,12
2023-01-17T09:16:17.127Z,10.3
2023-01-17T09:17:24.220Z,12.2
2023-01-17T09:18:31.393Z,11.8
2023-01-17T09:19:41.970Z,12.7
2023-01-17T09:20:49.766Z,11.8
2023-01-17T09:21:56.740Z,11.9
2023-01-17T09:23:03.967Z,12.8
2023-01-17T09:24:11.068Z,13.2
2023-01-17T09:25:18.185Z,14.1
2023-01-17T09:26:25.341Z,13.3
2023-01-17T09:27:32.381Z,15
2023-01-17T09:28:40.557Z,13.9
2023-01-17T09:29:47.761Z,15.4
2023-01-17T09:30:54.888Z,14.9
2023-01-17T09:32:01.938Z,14
2023-01-17T09:33:09.012Z,12.8
2023-01-17T09:34:16.320Z,12.7
2023-01-17T09:35:23.428Z,13.4
2023-01-17T09:36:30.398Z,13.4
2023-01-17T09:37:37.597Z,16.4
2023-01-17T09:38:45.692Z,14.1
2023-01-17T09:39:52.818Z,14.9
2023-01-17T09:41:00.042Z,15.2
2023-01-17T09:42:07.068Z,14
2023-01-17T09:43:24.461Z,14.2
2023-01-17T09:44:39.727Z,13.1
2023-01-17T09:45:53.066Z,15.2
2023-01-17T09:47:00.192Z,14.6
2023-01-17T09:48:09.776Z,12.6
2023-01-17T09:49:16.844Z,14
2023-01-17T09:50:34.116Z,12.8
2023-01-17T09:51:47.356Z,12.5
2023-01-17T09:52:54.544Z,11.8
2023-01-17T09:54:01.679Z,12.4
2023-01-17T09:55:08.887Z,12.2
2023-01-17T09:56:16.116Z,12.5
2023-01-17T09:57:23.537Z,11.8
2023-01-17T09:58:40.924Z,12
2023-01-17T10:00:03.393Z,11.1
2023-01-17T10:01:16.179Z,11.9
2023-01-17T10:02:26.573Z,11.4
2023-01-17T10:03:43.140Z,12
2023-01-17T10:04:55.133Z,11.1
2023-01-17T10:06:12.395Z,10.6
2023-01-17T10:07:19.566Z,10.8
2023-01-17T10:08:36.800Z,11.1
2023-01-17T10:09:49.181Z,9.5
2023-01-17T10:11:06.916Z,10.1
2023-01-17T10:12:19.197Z,8.9
2023-01-17T10:13:36.872Z,8.7
2023-01-17T10:14:51.783Z,9
2023-01-17T10:16:07.020Z,8.4
2023-01-17T10:17:19.223Z,8.5
2023-01-17T10:18:36.455Z,7.1
2023-01-17T10:19:49.167Z,7.6
2023-01-17T10:21:06.587Z,7.4
2023-01-17T10:22:13.569Z,7.1
2023-01-17T10:23:23.868Z,6.9
2023-01-17T10:24:41.665Z,7.7
2023-01-17T10:25:51.378Z,7.4
2023-01-17T10:26:58.368Z,7.6
2023-01-17T10:28:05.602Z,7.4
2023-01-17T10:29:20.041Z,7.7
2023-01-17T10:30:25.196Z,7.6
2023-01-17T10:31:37.552Z,7.5
2023-01-17T10:32:44.816Z,8
2023-01-17T10:33:51.977Z,7.8
2023-01-17T10:34:58.984Z,8.7
2023-01-17T10:36:06.115Z,8.2
2023-01-17T10:37:18.383Z,9.5
2023-01-17T10:38:33.598Z,8.2
2023-01-17T10:39:40.776Z,7.1
2023-01-17T10:40:47.989Z,7.1
2023-01-17T10:41:55.044Z,7.4
2023-01-17T10:43:10.495Z,7.4
2023-01-17T10:44:23.567Z,6.7
2023-01-17T10:45:30.700Z,6.5
2023-01-17T10:46:37.880Z,6.9
2023-01-17T10:47:44.854Z,7.2
2023-01-17T10:48:52.154Z,7.4
2023-01-17T10:49:59.203Z,8.2
2023-01-17T10:51:06.361Z,9.1
2023-01-17T10:52:21.595Z,8.2
2023-01-17T10:53:37.153Z,8.4
2023-01-17T10:54:49.599Z,8.3
2023-01-17T10:56:01.777Z,7.8
2023-01-17T10:57:09.033Z,8.3
2023-01-17T10:58:19.199Z,8.3
2023-01-17T10:59:26.266Z,8.5
2023-01-17T11:00:36.361Z,8.5
2023-01-17T11:01:51.496Z,8.7
2023-01-17T11:02:58.322Z,8.7
2023-01-17T11:04:05.431Z,8.8
2023-01-17T11:05:13.560Z,8.2
2023-01-17T11:06:23.595Z,8
2023-01-17T11:07:30.917Z,7.8
2023-01-17T11:08:38.003Z,8.5
2023-01-17T11:09:53.271Z,8.3
2023-01-17T11:11:00.357Z,9.5
2023-01-17T11:12:07.669Z,9.6
2023-01-17T11:13:24.765Z,9.7
2023-01-17T11:14:34.917Z,9.9
2023-01-17T11:15:42.086Z,10
2023-01-17T11:16:49.199Z,10.3
2023-01-17T11:18:01.467Z,10.3
2023-01-17T11:19:08.684Z,10.5
2023-01-17T11:20:18.354Z,11
2023-01-17T11:21:36.011Z,10.3
2023-01-17T11:22:43.176Z,9.5
2023-01-17T11:23:50.270Z,10.4
2023-01-17T11:24:57.420Z,11
2023-01-17T11:26:04.548Z,10.6
2023-01-17T11:27:11.732Z,11.3
2023-01-17T11:28:26.989Z,11.4
2023-01-17T11:29:35.969Z,10.3
2023-01-17T11:30:41.315Z,10.3
2023-01-17T11:31:53.456Z,10.4
2023-01-17T11:33:00.592Z,11.1
2023-01-17T11:34:07.627Z,10.4
2023-01-17T11:35:17.485Z,8.9
2023-01-17T11:36:29.727Z,8.9
2023-01-17T11:37:36.809Z,9.8
2023-01-17T11:38:43.779Z,10.4
2023-01-17T11:40:01.159Z,10.4
2023-01-17T11:41:11.366Z,8.5
2023-01-17T11:42:23.648Z,8.4
2023-01-17T11:43:33.652Z,9.5
2023-01-17T11:44:40.877Z,11.1
2023-01-17T11:45:47.896Z,16
2023-01-17T11:47:02.696Z,12.5
2023-01-17T11:48:14.961Z,10.8
2023-01-17T11:49:22.043Z,7.7
2023-01-17T11:50:29.208Z,8.3
2023-01-17T11:51:36.319Z,8.5
2023-01-17T11:52:43.508Z,8.1
2023-01-17T11:53:50.541Z,8.1
2023-01-17T11:54:57.725Z,8.1
2023-01-17T11:56:04.853Z,8.3
2023-01-17T11:57:12.004Z,8.5
2023-01-17T11:58:24.200Z,7.3
2023-01-17T11:59:31.471Z,7.3
2023-01-17T12:00:41.608Z,7.7
2023-01-17T12:01:48.643Z,7.9
2023-01-17T12:03:00.831Z,8.9
2023-01-17T12:04:10.752Z,7.3
2023-01-17T12:05:28.778Z,7.7
2023-01-17T12:06:57.057Z,6.8
2023-01-17T12:08:04.640Z,6.6
2023-01-17T12:09:22.850Z,7.5
2023-01-17T12:10:38.431Z,7
2023-01-17T12:11:48.779Z,7.2
2023-01-17T12:13:09.143Z,7.4
2023-01-17T12:14:24.493Z,7.8
2023-01-17T12:15:34.685Z,7
2023-01-17T12:16:47.405Z,6.5
2023-01-17T12:18:04.632Z,6.7
2023-01-17T12:19:14.356Z,5.1
2023-01-17T12:20:32.192Z,6.2
2023-01-17T12:21:47.855Z,6.3
2023-01-17T12:23:05.381Z,5.9
2023-01-17T12:24:12.428Z,5.9
2023-01-17T12:25:29.665Z,6.8
2023-01-17T12:26:39.829Z,7.3
2023-01-17T12:27:57.294Z,6.7
2023-01-17T12:29:14.432Z,6.7
2023-01-17T12:30:29.243Z,7.1
2023-01-17T12:31:42.119Z,6.9
2023-01-17T12:32:49.144Z,6.7
2023-01-17T12:34:01.228Z,6
2023-01-17T12:35:16.564Z,5.9
2023-01-17T12:36:26.248Z,6.1
2023-01-17T12:37:38.402Z,6.2
2023-01-17T12:38:45.635Z,8.2
2023-01-17T12:39:52.660Z,6.5
2023-01-17T12:40:59.877Z,7.7
2023-01-17T12:42:12.087Z,7.3
2023-01-17T12:43:22.219Z,7.3
2023-01-17T12:44:32.412Z,7.5
2023-01-17T12:45:47.243Z,6.7
2023-01-17T12:46:54.409Z,5.8
2023-01-17T12:48:03.944Z,6.1
2023-01-17T12:49:19.314Z,5.7
2023-01-17T12:50:36.475Z,6.3
2023-01-17T12:51:43.634Z,6.1
2023-01-17T12:52:50.842Z,5.6
2023-01-17T12:54:06.064Z,5.6
2023-01-17T12:55:18.240Z,6.6
2023-01-17T12:56:30.517Z,6.6
2023-01-17T12:57:42.682Z,6
2023-01-17T12:58:49.847Z,5.2
2023-01-17T13:00:07.216Z,5.9
2023-01-17T13:01:17.411Z,5.6
2023-01-17T13:02:26.943Z,5.5
2023-01-17T13:03:36.631Z,6.1
2023-01-17T13:04:57.583Z,6.1
2023-01-17T13:05:50.888Z,5.5
2023-01-17T13:06:58.010Z,5.3
2023-01-17T13:08:10.175Z,5.3
2023-01-17T13:09:25.068Z,5.4
2023-01-17T13:10:34.576Z,5.7
2023-01-17T13:11:44.799Z,5.7
2023-01-17T13:12:51.893Z,5.7
2023-01-17T13:13:59.055Z,6.1
2023-01-17T13:15:06.212Z,6
2023-01-17T13:16:18.553Z,6.3
2023-01-17T13:17:25.524Z,6.8
2023-01-17T13:18:40.320Z,5.3
2023-01-17T13:19:47.518Z,5.4
2023-01-17T13:21:00.202Z,5.7
2023-01-17T13:22:14.995Z,4.9
2023-01-17T13:23:22.103Z,6
2023-01-17T13:24:37.363Z,6.1
2023-01-17T13:25:47.055Z,5.6
2023-01-17T13:26:54.192Z,5.5
2023-01-17T13:28:11.448Z,5.2
2023-01-17T13:29:23.806Z,5.1
2023-01-17T13:30:36.522Z,5.9
2023-01-17T13:31:43.938Z,5.7
2023-01-17T13:32:56.344Z,5.9
2023-01-17T13:34:08.621Z,5.6
2023-01-17T13:35:25.926Z,6
2023-01-17T13:36:36.119Z,5.2
2023-01-17T13:37:48.208Z,6.4
2023-01-17T13:39:05.524Z,6.4
2023-01-17T13:40:22.928Z,7
2023-01-17T13:41:35.072Z,7.2
2023-01-17T13:42:49.796Z,7.1
2023-01-17T13:44:04.616Z,6.6
2023-01-17T13:45:16.939Z,7
2023-01-17T13:46:23.934Z,6.6
2023-01-17T13:47:31.103Z,7
2023-01-17T13:48:39.307Z,6.2
2023-01-17T13:49:46.372Z,6.5
2023-01-17T13:50:53.455Z,7.1
2023-01-17T13:52:05.651Z,6.4
2023-01-17T13:53:23.417Z,7.4
2023-01-17T13:54:30.542Z,7.2
2023-01-17T13:55:37.851Z,7.1
2023-01-17T13:56:47.405Z,7.1
2023-01-17T13:57:54.485Z,6.4
2023-01-17T13:59:01.710Z,5.5
2023-01-17T14:00:08.787Z,6.1
2023-01-17T14:01:16.199Z,5.4
2023-01-17T14:02:26.048Z,5.5
2023-01-17T14:03:36.306Z,5.5
2023-01-17T14:04:53.655Z,5.5
2023-01-17T14:06:08.380Z,6.1
2023-01-17T14:07:25.635Z,6.2
2023-01-17T14:08:32.730Z,6.6
2023-01-17T14:09:39.858Z,6
2023-01-17T14:10:47.092Z,6.4
2023-01-17T14:11:57.144Z,5.6
2023-01-17T14:13:06.780Z,5.4
2023-01-17T14:14:24.164Z,5.9
2023-01-17T14:15:39.303Z,6.4
2023-01-17T14:16:51.569Z,6
2023-01-17T14:17:58.700Z,6
2023-01-17T14:19:05.780Z,6.8
2023-01-17T14:20:12.914Z,6.9
2023-01-17T14:21:20.166Z,7.6
2023-01-17T14:22:32.755Z,8.5
2023-01-17T14:23:39.958Z,7.7
2023-01-17T14:24:49.618Z,7.6
2023-01-17T14:26:04.767Z,8.3
2023-01-17T14:27:14.498Z,7.8
2023-01-17T14:28:21.574Z,9.1
2023-01-17T14:29:31.205Z,9.3
2023-01-17T14:30:48.515Z,10.8
2023-01-17T14:31:55.401Z,10.7
2023-01-17T14:33:02.198Z,10.3
2023-01-17T14:34:09.419Z,10.3
2023-01-17T14:35:16.559Z,9.9
2023-01-17T14:36:23.792Z,10.2
2023-01-17T14:37:30.743Z,10.1
2023-01-17T14:38:46.139Z,9.9
2023-01-17T14:39:53.157Z,9.4
2023-01-17T14:41:00.217Z,9.9
2023-01-17T14:42:10.355Z,9.9
2023-01-17T14:43:17.540Z,10.7
2023-01-17T14:44:24.588Z,11.4
2023-01-17T14:45:31.356Z,13.4
2023-01-17T14:46:38.467Z,12.3
2023-01-17T14:47:46.696Z,14.8
2023-01-17T14:48:53.715Z,11.1
2023-01-17T14:50:06.055Z,10.8
2023-01-17T14:51:20.779Z,10.7
2023-01-17T14:52:27.863Z,9.5
2023-01-17T14:53:35.006Z,10.4
2023-01-17T14:54:42.211Z,10.6
2023-01-17T14:55:52.247Z,9.3
2023-01-17T14:57:05.508Z,10.2
2023-01-17T14:58:22.855Z,10.7
2023-01-17T14:59:29.920Z,10.2
2023-01-17T15:00:36.994Z,9.3
2023-01-17T15:01:48.049Z,10.4
2023-01-17T15:02:59.367Z,13
2023-01-17T15:04:06.387Z,11.9
2023-01-17T15:05:23.904Z,12.7
2023-01-17T15:06:30.800Z,12.1
2023-01-17T15:07:41.089Z,12.3
2023-01-17T15:08:48.180Z,12.3
2023-01-17T15:09:58.343Z,12.5
2023-01-17T15:11:05.476Z,11.7
2023-01-17T15:12:17.716Z,11.1
2023-01-17T15:13:35.567Z,11.3
2023-01-17T15:14:37.085Z,11.5
2023-01-17T15:15:44.165Z,12.2
2023-01-17T15:16:51.324Z,12.9
2023-01-17T15:17:58.319Z,13.6
2023-01-17T15:19:10.664Z,17
2023-01-17T15:20:17.779Z,17.4
2023-01-17T15:21:25.031Z,15.5
2023-01-17T15:22:35.007Z,15.6
2023-01-17T15:23:42.275Z,15.7
2023-01-17T15:24:52.403Z,14.7
2023-01-17T15:25:59.599Z,13.6
2023-01-17T15:27:06.670Z,13.1
2023-01-17T15:28:16.803Z,14
2023-01-17T15:29:23.895Z,13.2
2023-01-17T15:30:33.676Z,11.8
2023-01-17T15:31:40.651Z,11.3
2023-01-17T15:32:50.659Z,11.2
2023-01-17T15:33:57.538Z,10.3
2023-01-17T15:35:04.621Z,10.3
2023-01-17T15:36:11.809Z,11.4
2023-01-17T15:37:24.086Z,9.3
2023-01-17T15:38:38.455Z,9.1
2023-01-17T15:39:41.299Z,9.7
2023-01-17T15:40:48.426Z,8.5
2023-01-17T15:41:55.524Z,8.4
2023-01-17T15:43:02.615Z,8.9
2023-01-17T15:44:09.745Z,8.7
2023-01-17T15:45:27.118Z,8.3